createdAt,value
2022-07-29T00:01:44.296Z,24.15
2022-07-29T00:04:13.992Z,24.30
2022-07-29T00:06:42.022Z,24.17
2022-07-29T00:09:10.210Z,24.43
2022-07-29T00:11:39.209Z,24.16
2022-07-29T00:14:10.251Z,24.14
2022-07-29T00:16:38.363Z,23.92
2022-07-29T00:19:07.798Z,24.04
2022-07-29T00:21:35.751Z,23.80
2022-07-29T00:24:04.034Z,24.12
2022-07-29T00:26:33.645Z,24.07
2022-07-29T00:29:32.512Z,24.18
2022-07-29T00:31:51.092Z,24.26
2022-07-29T00:34:38.115Z,24.49
2022-07-29T00:37:06.003Z,24.41
2022-07-29T00:39:35.771Z,24.65
2022-07-29T00:42:05.868Z,24.87
2022-07-29T00:44:38.412Z,24.83
2022-07-29T00:47:08.240Z,25.09
2022-07-29T00:49:36.770Z,25.19
2022-07-29T00:52:05.829Z,25.20
2022-07-29T00:54:35.306Z,25.55
2022-07-29T00:57:07.922Z,25.56
2022-07-29T00:59:36.240Z,25.53
2022-07-29T01:02:04.670Z,25.47
2022-07-29T01:04:33.096Z,25.62
2022-07-29T01:07:03.061Z,25.58
2022-07-29T01:09:42.207Z,25.72
2022-07-29T01:12:16.416Z,25.66
2022-07-29T01:14:44.369Z,25.61
2022-07-29T01:17:15.497Z,25.73
2022-07-29T01:19:52.437Z,26.04
2022-07-29T01:22:26.987Z,25.70
2022-07-29T01:25:04.659Z,25.86
2022-07-29T01:28:10.411Z,26.01
2022-07-29T01:30:43.300Z,25.94
2022-07-29T01:33:34.880Z,26.07
2022-07-29T01:36:07.520Z,26.01
2022-07-29T01:38:36.429Z,25.90
2022-07-29T01:41:12.236Z,25.86
2022-07-29T01:43:53.342Z,25.98
2022-07-29T01:46:34.891Z,25.97
2022-07-29T01:49:15.868Z,25.91
2022-07-29T01:52:05.197Z,26.04
2022-07-29T01:54:40.076Z,25.87
2022-07-29T01:57:09.416Z,25.94
2022-07-29T01:59:38.509Z,25.93
2022-07-29T02:02:09.401Z,26.11
2022-07-29T02:04:38.644Z,25.88
2022-07-29T02:07:07.375Z,25.98
2022-07-29T02:09:36.851Z,25.64
2022-07-29T02:12:05.655Z,25.69
2022-07-29T02:14:37.498Z,25.84
2022-07-29T02:17:06.302Z,25.77
2022-07-29T02:19:37.592Z,25.72
2022-07-29T02:22:07.633Z,25.90
2022-07-29T02:24:37.576Z,25.86
2022-07-29T02:27:05.320Z,25.90
2022-07-29T02:29:33.699Z,25.78
2022-07-29T02:32:02.163Z,25.84
2022-07-29T02:34:30.529Z,25.94
2022-07-29T02:36:59.407Z,25.94
2022-07-29T02:39:29.799Z,25.66
2022-07-29T02:42:07.237Z,25.82
2022-07-29T02:44:38.091Z,25.78
2022-07-29T02:47:20.421Z,25.76
2022-07-29T02:49:59.008Z,25.79
2022-07-29T02:52:35.252Z,25.69
2022-07-29T02:55:12.470Z,25.76
2022-07-29T02:57:55.123Z,25.78
2022-07-29T03:00:28.046Z,25.81
2022-07-29T03:02:57.714Z,25.72
2022-07-29T03:05:25.764Z,25.72
2022-07-29T03:07:59.966Z,25.70
2022-07-29T03:10:28.538Z,25.59
2022-07-29T03:12:57.170Z,25.52
2022-07-29T03:15:26.704Z,25.54
2022-07-29T03:17:57.126Z,25.51
2022-07-29T03:20:25.921Z,25.45
2022-07-29T03:22:54.019Z,25.52
2022-07-29T03:25:22.012Z,25.61
2022-07-29T03:27:50.542Z,25.59
2022-07-29T03:30:22.241Z,25.58
2022-07-29T03:32:52.075Z,25.57
2022-07-29T03:35:21.243Z,25.56
2022-07-29T03:37:50.395Z,25.37
2022-07-29T03:40:31.523Z,25.35
2022-07-29T03:43:00.509Z,25.57
2022-07-29T03:45:31.037Z,25.41
2022-07-29T03:48:02.956Z,25.36
2022-07-29T03:50:32.194Z,25.50
2022-07-29T03:53:00.995Z,25.43
2022-07-29T03:55:30.794Z,25.36
2022-07-29T03:58:00.346Z,25.37
2022-07-29T04:00:29.104Z,25.37
2022-07-29T04:02:58.831Z,25.29
2022-07-29T04:05:26.915Z,25.39
2022-07-29T04:07:54.961Z,25.15
2022-07-29T04:10:30.090Z,25.33
2022-07-29T04:13:00.375Z,25.19
2022-07-29T04:15:30.814Z,25.34
2022-07-29T04:18:00.321Z,25.48
2022-07-29T04:20:28.936Z,25.28
2022-07-29T04:22:56.562Z,25.43
2022-07-29T04:25:24.619Z,25.36
2022-07-29T04:28:02.218Z,25.47
2022-07-29T04:30:32.207Z,25.72
2022-07-29T04:33:02.019Z,25.32
2022-07-29T04:35:38.243Z,25.33
2022-07-29T04:38:07.623Z,25.44
2022-07-29T04:40:44.272Z,25.90
2022-07-29T04:43:17.010Z,25.66
2022-07-29T04:45:51.405Z,25.58
2022-07-29T04:48:21.949Z,25.59
2022-07-29T04:50:51.929Z,25.78
2022-07-29T04:53:19.861Z,25.81
2022-07-29T04:55:48.220Z,26.00
2022-07-29T04:58:15.927Z,26.05
2022-07-29T05:00:43.883Z,26.18
2022-07-29T05:03:13.451Z,26.34
2022-07-29T05:05:42.030Z,26.54
2022-07-29T05:08:11.064Z,26.33
2022-07-29T05:10:50.073Z,26.47
2022-07-29T05:13:20.378Z,26.54
2022-07-29T05:15:48.677Z,26.64
2022-07-29T05:18:18.686Z,26.52
2022-07-29T05:20:47.057Z,26.79
2022-07-29T05:23:15.702Z,26.75
2022-07-29T05:25:44.850Z,26.73
2022-07-29T05:28:13.659Z,26.67
2022-07-29T05:30:42.449Z,26.84
2022-07-29T05:33:34.221Z,27.05
2022-07-29T05:36:00.879Z,26.98
2022-07-29T05:38:29.023Z,27.29
2022-07-29T05:41:01.625Z,27.32
2022-07-29T05:43:31.056Z,27.40
2022-07-29T05:46:00.544Z,27.40
2022-07-29T05:48:29.533Z,27.13
2022-07-29T05:51:01.481Z,27.00
2022-07-29T05:53:31.320Z,27.15
2022-07-29T05:55:59.600Z,26.78
2022-07-29T05:58:31.695Z,26.84
2022-07-29T06:01:02.707Z,26.68
2022-07-29T06:03:42.548Z,27.14
2022-07-29T06:06:11.804Z,26.99
2022-07-29T06:08:44.220Z,27.18
2022-07-29T06:11:15.510Z,27.08
2022-07-29T06:13:44.142Z,27.24
2022-07-29T06:16:11.865Z,27.42
2022-07-29T06:18:43.612Z,27.58
2022-07-29T06:21:13.040Z,27.53
2022-07-29T06:23:41.497Z,27.39
2022-07-29T06:26:09.881Z,27.06
2022-07-29T06:28:40.534Z,27.78
2022-07-29T06:31:14.927Z,27.86
2022-07-29T06:33:44.395Z,27.88
2022-07-29T06:36:13.884Z,27.81
2022-07-29T06:38:47.547Z,28.25
2022-07-29T06:41:20.054Z,28.63
2022-07-29T06:43:52.480Z,28.51
2022-07-29T06:46:24.119Z,28.00
2022-07-29T06:48:54.364Z,28.66
2022-07-29T06:51:23.905Z,28.73
2022-07-29T06:54:02.350Z,28.30
2022-07-29T06:56:39.635Z,28.02
2022-07-29T06:59:11.484Z,28.14
2022-07-29T07:01:45.672Z,28.50
2022-07-29T07:04:16.763Z,28.83
2022-07-29T07:06:47.555Z,28.95
2022-07-29T07:09:18.259Z,28.98
2022-07-29T07:11:46.654Z,28.62
2022-07-29T07:14:18.315Z,29.11
2022-07-29T07:16:46.940Z,28.99
2022-07-29T07:19:16.698Z,28.89
2022-07-29T07:21:50.115Z,29.14
2022-07-29T07:24:18.291Z,28.96
2022-07-29T07:26:52.432Z,29.15
2022-07-29T07:29:21.029Z,29.53
2022-07-29T07:31:56.347Z,29.08
2022-07-29T07:34:31.222Z,29.80
2022-07-29T07:36:59.629Z,29.76
2022-07-29T07:39:28.234Z,30.20
2022-07-29T07:41:56.349Z,30.30
2022-07-29T07:44:25.131Z,30.14
2022-07-29T07:46:55.225Z,30.07
2022-07-29T07:49:28.316Z,29.70
2022-07-29T07:51:57.694Z,30.20
2022-07-29T07:54:26.185Z,30.31
2022-07-29T07:56:55.504Z,30.50
2022-07-29T07:59:26.267Z,30.00
2022-07-29T08:01:56.616Z,30.59
2022-07-29T08:04:33.276Z,30.56
2022-07-29T08:07:05.641Z,30.63
2022-07-29T08:09:35.536Z,30.98
2022-07-29T08:12:05.081Z,30.96
2022-07-29T08:14:35.516Z,31.06
2022-07-29T08:17:05.443Z,30.97
2022-07-29T08:19:34.354Z,31.36
2022-07-29T08:22:03.277Z,31.48
2022-07-29T08:24:44.559Z,31.49
2022-07-29T08:27:40.891Z,31.83
2022-07-29T08:30:10.204Z,32.11
2022-07-29T08:32:56.138Z,32.14
2022-07-29T08:35:35.108Z,31.74
2022-07-29T08:38:05.657Z,31.98
2022-07-29T08:40:36.246Z,32.40
2022-07-29T08:43:09.087Z,32.41
2022-07-29T08:45:49.586Z,32.46
2022-07-29T08:48:21.679Z,32.09
2022-07-29T08:50:53.987Z,32.12
2022-07-29T08:53:22.837Z,32.10
2022-07-29T08:55:52.430Z,31.85
2022-07-29T08:58:23.361Z,32.34
2022-07-29T09:00:56.720Z,32.76
2022-07-29T09:03:32.847Z,32.29
2022-07-29T09:06:04.460Z,32.78
2022-07-29T09:08:34.311Z,33.37
2022-07-29T09:11:05.747Z,33.65
2022-07-29T09:13:35.838Z,33.77
2022-07-29T09:16:09.342Z,33.50
2022-07-29T09:18:45.335Z,33.84
2022-07-29T09:21:36.329Z,33.70
2022-07-29T09:24:14.869Z,33.64
2022-07-29T09:26:47.001Z,33.76
2022-07-29T09:29:22.569Z,33.82
2022-07-29T09:31:54.071Z,34.37
2022-07-29T09:34:29.414Z,34.44
2022-07-29T09:36:59.295Z,34.40
2022-07-29T09:39:47.426Z,34.52
2022-07-29T09:42:29.372Z,34.60
2022-07-29T09:44:57.629Z,34.39
2022-07-29T09:47:47.297Z,34.64
2022-07-29T09:50:16.188Z,34.85
2022-07-29T09:52:54.489Z,35.26
2022-07-29T09:55:23.185Z,35.26
2022-07-29T09:57:55.568Z,34.97
2022-07-29T10:00:24.209Z,35.06
2022-07-29T10:03:08.388Z,35.52
2022-07-29T10:05:40.530Z,35.22
2022-07-29T10:08:16.277Z,35.24
2022-07-29T10:10:44.216Z,35.74
2022-07-29T10:13:16.704Z,35.90
2022-07-29T10:15:47.603Z,35.66
2022-07-29T10:18:20.758Z,35.55
2022-07-29T10:20:52.614Z,35.85
2022-07-29T10:23:22.908Z,35.65
2022-07-29T10:25:51.020Z,35.87
2022-07-29T10:28:24.658Z,35.48
2022-07-29T10:30:54.561Z,35.87
2022-07-29T10:33:42.376Z,36.03
2022-07-29T10:42:14.471Z,35.90
2022-07-29T10:44:50.009Z,35.97
2022-07-29T10:47:27.767Z,36.40
2022-07-29T10:50:05.339Z,36.47
2022-07-29T10:53:10.479Z,36.51
2022-07-29T10:55:55.179Z,36.60
2022-07-29T10:58:25.379Z,37.05
2022-07-29T11:01:06.476Z,36.08
2022-07-29T11:03:53.682Z,36.39
2022-07-29T11:06:26.597Z,36.24
2022-07-29T11:09:25.910Z,36.34
2022-07-29T11:12:05.572Z,36.38
2022-07-29T11:14:56.569Z,36.91
2022-07-29T11:17:26.039Z,37.80
2022-07-29T11:20:43.568Z,36.87
2022-07-29T11:23:33.425Z,36.54
2022-07-29T11:26:18.817Z,35.75
2022-07-29T11:28:56.312Z,36.03
2022-07-29T11:31:35.477Z,36.20
2022-07-29T11:34:41.561Z,36.55
2022-07-29T11:37:17.697Z,36.37
2022-07-29T11:40:01.518Z,36.96
2022-07-29T11:42:36.694Z,37.13
2022-07-29T11:45:43.923Z,37.20
2022-07-29T11:48:31.500Z,37.81
2022-07-29T11:51:13.329Z,37.25
2022-07-29T11:53:41.591Z,36.61
2022-07-29T11:56:21.391Z,36.70
2022-07-29T11:59:08.514Z,35.89
2022-07-29T12:02:12.039Z,35.66
2022-07-29T12:04:58.360Z,35.54
2022-07-29T12:07:37.547Z,35.46
2022-07-29T12:10:11.453Z,35.97
2022-07-29T12:12:57.374Z,36.18
2022-07-29T12:15:39.490Z,36.20
2022-07-29T12:18:16.462Z,36.47
2022-07-29T12:21:05.441Z,37.07
2022-07-29T12:23:35.593Z,37.25
2022-07-29T12:26:11.056Z,37.17
2022-07-29T12:29:08.494Z,37.39
2022-07-29T12:31:45.519Z,36.87
2022-07-29T12:34:14.859Z,37.09
2022-07-29T12:36:45.549Z,37.09
2022-07-29T12:39:14.338Z,36.73
2022-07-29T12:41:42.225Z,36.87
2022-07-29T12:44:11.690Z,37.08
2022-07-29T12:46:46.591Z,37.14
2022-07-29T12:49:30.396Z,37.53
2022-07-29T12:52:30.812Z,37.28
2022-07-29T12:55:03.663Z,37.78
2022-07-29T12:57:33.759Z,37.20
2022-07-29T13:00:12.170Z,37.51
2022-07-29T13:02:45.501Z,37.58
2022-07-29T13:05:15.462Z,37.73
2022-07-29T13:07:55.757Z,37.15
2022-07-29T13:10:37.876Z,37.17
2022-07-29T13:13:09.122Z,37.59
2022-07-29T13:15:40.962Z,37.64
2022-07-29T13:18:30.087Z,37.30
2022-07-29T13:21:13.057Z,37.33
2022-07-29T13:23:55.363Z,37.03
2022-07-29T13:26:25.446Z,37.55
2022-07-29T13:28:57.428Z,37.13
2022-07-29T13:31:28.333Z,37.92
2022-07-29T13:34:01.557Z,37.53
2022-07-29T13:39:13.376Z,37.78
2022-07-29T13:41:44.439Z,37.84
2022-07-29T13:44:14.588Z,38.00
2022-07-29T13:46:50.724Z,37.76
2022-07-29T13:49:24.959Z,37.55
2022-07-29T13:51:55.734Z,37.59
2022-07-29T13:54:25.040Z,36.97
2022-07-29T13:56:57.126Z,37.14
2022-07-29T13:59:26.836Z,37.25
2022-07-29T14:01:59.771Z,37.28
2022-07-29T14:04:29.790Z,37.13
2022-07-29T14:07:04.562Z,37.19
2022-07-29T14:09:43.049Z,36.97
2022-07-29T14:12:19.438Z,36.95
2022-07-29T14:15:01.357Z,37.39
2022-07-29T14:20:13.196Z,37.57
2022-07-29T14:22:46.368Z,37.08
2022-07-29T14:25:16.771Z,37.52
2022-07-29T14:27:52.537Z,37.13
2022-07-29T14:30:24.545Z,36.98
2022-07-29T14:33:12.715Z,37.50
2022-07-29T14:35:44.793Z,37.22
2022-07-29T14:38:16.932Z,36.70
2022-07-29T14:40:50.893Z,36.78
2022-07-29T14:43:21.900Z,36.55
2022-07-29T14:46:02.910Z,36.72
2022-07-29T14:48:34.994Z,36.74
2022-07-29T14:51:05.666Z,36.47
2022-07-29T14:53:38.102Z,36.44
2022-07-29T14:58:51.889Z,36.43
2022-07-29T15:01:21.829Z,36.22
2022-07-29T15:03:55.750Z,36.06
2022-07-29T15:06:37.454Z,35.87
2022-07-29T15:09:05.667Z,36.44
2022-07-29T15:14:11.610Z,36.16
2022-07-29T15:16:47.974Z,36.39
2022-07-29T15:19:22.463Z,36.28
2022-07-29T15:21:52.761Z,36.50
2022-07-29T15:24:31.413Z,36.43
2022-07-29T15:27:00.934Z,36.29
2022-07-29T15:29:30.650Z,36.20
2022-07-29T15:32:09.251Z,35.94
2022-07-29T15:34:46.018Z,35.57
2022-07-29T15:37:17.458Z,35.77
2022-07-29T15:39:51.459Z,35.59
2022-07-29T15:42:20.683Z,35.67
2022-07-29T15:44:52.430Z,35.82
2022-07-29T15:47:33.226Z,36.21
2022-07-29T15:50:05.545Z,36.11
2022-07-29T15:52:34.396Z,35.98
2022-07-29T15:55:10.490Z,35.71
2022-07-29T15:57:41.604Z,35.55
2022-07-29T16:02:56.856Z,35.64
2022-07-29T16:08:11.466Z,35.41
2022-07-29T16:10:56.474Z,35.39
2022-07-29T16:13:28.790Z,35.53
2022-07-29T16:16:02.500Z,35.62
2022-07-29T16:18:35.451Z,35.01
2022-07-29T16:23:45.776Z,35.41
2022-07-29T16:26:15.587Z,35.50
2022-07-29T16:28:46.755Z,35.28
2022-07-29T16:31:23.516Z,35.32
2022-07-29T16:34:00.770Z,35.33
2022-07-29T16:36:31.747Z,34.95
2022-07-29T16:39:06.735Z,35.26
2022-07-29T16:41:39.474Z,35.20
2022-07-29T16:44:08.378Z,35.29
2022-07-29T16:46:41.569Z,35.16
2022-07-29T16:49:19.417Z,35.11
2022-07-29T16:51:50.962Z,35.09
2022-07-29T16:54:21.448Z,34.99
2022-07-29T16:56:53.793Z,34.81
2022-07-29T16:59:23.583Z,34.79
2022-07-29T17:01:52.961Z,34.60
2022-07-29T17:04:22.886Z,34.81
2022-07-29T17:06:58.600Z,34.67
2022-07-29T17:09:36.483Z,34.64
2022-07-29T17:12:04.956Z,34.56
2022-07-29T17:14:39.679Z,34.38
2022-07-29T17:17:13.789Z,34.25
2022-07-29T17:22:19.691Z,33.97
2022-07-29T17:24:54.449Z,33.80
2022-07-29T17:29:59.959Z,33.56
2022-07-29T17:32:28.734Z,33.44
2022-07-29T17:34:57.021Z,33.32
2022-07-29T17:37:26.131Z,33.42
2022-07-29T17:39:58.619Z,33.34
2022-07-29T17:42:38.996Z,33.08
2022-07-29T17:45:11.672Z,33.03
2022-07-29T17:52:58.559Z,32.97
2022-07-29T17:55:29.462Z,32.91
2022-07-29T17:58:00.135Z,32.79
2022-07-29T18:00:31.099Z,32.67
2022-07-29T18:03:12.642Z,32.54
2022-07-29T18:05:41.811Z,32.35
2022-07-29T18:08:20.079Z,32.44
2022-07-29T18:10:49.596Z,32.39
2022-07-29T18:13:26.571Z,32.37
2022-07-29T18:15:58.699Z,32.23
2022-07-29T18:18:28.453Z,32.25
2022-07-29T18:20:58.548Z,32.15
2022-07-29T18:23:26.403Z,32.16
2022-07-29T18:25:57.982Z,31.71
2022-07-29T18:28:28.205Z,31.69
2022-07-29T18:30:56.752Z,31.52
2022-07-29T18:33:26.155Z,31.39
2022-07-29T18:36:10.490Z,31.34
2022-07-29T18:39:00.676Z,31.32
2022-07-29T18:41:35.457Z,31.28
2022-07-29T18:44:23.055Z,31.10
2022-07-29T18:47:07.755Z,30.97
2022-07-29T18:49:58.692Z,30.72
2022-07-29T18:52:36.930Z,30.84
2022-07-29T18:55:13.654Z,30.85
2022-07-29T18:57:55.392Z,30.85
2022-07-29T19:00:41.633Z,30.79
2022-07-29T19:03:11.956Z,30.78
2022-07-29T19:05:40.179Z,30.70
2022-07-29T19:08:09.039Z,30.68
2022-07-29T19:10:48.471Z,30.65
2022-07-29T19:13:22.879Z,30.61
2022-07-29T19:15:53.310Z,30.61
2022-07-29T19:18:27.957Z,30.77
2022-07-29T19:21:15.477Z,30.37
2022-07-29T19:24:00.783Z,30.06
2022-07-29T19:26:47.598Z,29.70
2022-07-29T19:29:30.646Z,28.95
2022-07-29T19:32:07.129Z,29.23
2022-07-29T19:34:39.507Z,29.55
2022-07-29T19:37:19.622Z,29.71
2022-07-29T19:39:51.086Z,29.82
2022-07-29T19:42:39.535Z,29.90
2022-07-29T19:45:12.517Z,29.61
2022-07-29T19:47:46.486Z,29.12
2022-07-29T19:50:22.532Z,29.07
2022-07-29T19:58:29.451Z,29.34
2022-07-29T20:01:10.353Z,29.28
2022-07-29T20:03:49.512Z,29.11
2022-07-29T20:06:23.502Z,29.44
2022-07-29T20:08:58.776Z,29.49
2022-07-29T20:11:37.747Z,29.09
2022-07-29T20:14:12.497Z,28.91
2022-07-29T20:16:47.060Z,28.75
2022-07-29T20:19:27.542Z,28.92
2022-07-29T20:24:36.675Z,28.96
2022-07-29T20:27:15.522Z,28.79
2022-07-29T20:29:48.691Z,28.71
2022-07-29T20:32:16.998Z,28.67
2022-07-29T20:34:49.653Z,28.75
2022-07-29T20:37:28.628Z,28.69
2022-07-29T20:39:57.556Z,28.42
2022-07-29T20:42:28.771Z,28.67
2022-07-29T20:47:38.530Z,28.44
2022-07-29T20:50:15.509Z,28.59
2022-07-29T20:52:51.959Z,28.66
2022-07-29T20:55:32.483Z,28.48
2022-07-29T20:58:07.530Z,28.66
2022-07-29T21:00:35.993Z,28.82
2022-07-29T21:03:05.026Z,28.90
2022-07-29T21:05:34.468Z,29.01
2022-07-29T21:08:03.523Z,28.74
2022-07-29T21:10:32.750Z,29.23
2022-07-29T21:13:01.303Z,29.29
2022-07-29T21:15:30.569Z,29.18
2022-07-29T21:18:17.935Z,29.24
2022-07-29T21:20:58.515Z,29.04
2022-07-29T21:23:30.480Z,29.47
2022-07-29T21:25:58.807Z,29.28
2022-07-29T21:28:27.817Z,29.29
2022-07-29T21:31:02.495Z,29.50
2022-07-29T21:33:35.369Z,29.09
2022-07-29T21:38:55.016Z,29.28
2022-07-29T21:41:24.145Z,29.41
2022-07-29T21:43:52.327Z,29.25
2022-07-29T21:46:24.513Z,29.01
2022-07-29T21:48:58.640Z,28.91
2022-07-29T21:51:31.075Z,28.84
2022-07-29T21:53:59.848Z,29.28
2022-07-29T21:56:29.912Z,29.04
2022-07-29T21:58:59.174Z,28.70
2022-07-29T22:01:28.494Z,28.51
2022-07-29T22:04:07.873Z,28.56
2022-07-29T22:06:35.708Z,28.59
2022-07-29T22:09:04.947Z,28.39
2022-07-29T22:11:33.635Z,28.65
2022-07-29T22:14:01.723Z,28.17
2022-07-29T22:16:31.123Z,28.05
2022-07-29T22:19:03.882Z,28.22
2022-07-29T22:21:35.238Z,28.25
2022-07-29T22:24:03.215Z,28.15
2022-07-29T22:26:32.508Z,28.26
2022-07-29T22:29:00.672Z,28.22
2022-07-29T22:34:12.766Z,27.80
2022-07-29T22:36:41.383Z,27.68
2022-07-29T22:39:09.771Z,27.46
2022-07-29T22:41:37.895Z,27.64
2022-07-29T22:44:06.299Z,27.33
2022-07-29T22:46:34.609Z,27.54
2022-07-29T22:49:02.736Z,27.31
2022-07-29T22:51:32.410Z,27.38
2022-07-29T22:54:00.067Z,27.76
2022-07-29T22:56:27.842Z,27.34
2022-07-29T22:58:56.150Z,27.25
2022-07-29T23:01:35.796Z,27.26
2022-07-29T23:04:06.469Z,27.20
2022-07-29T23:06:34.887Z,27.11
2022-07-29T23:09:03.760Z,27.00
2022-07-29T23:11:32.948Z,27.11
2022-07-29T23:14:00.905Z,27.33
2022-07-29T23:16:31.815Z,27.45
2022-07-29T23:19:01.102Z,27.10
2022-07-29T23:21:29.099Z,26.97
2022-07-29T23:23:58.187Z,26.69
2022-07-29T23:26:26.564Z,26.95
2022-07-29T23:28:55.010Z,26.78
2022-07-29T23:31:23.540Z,26.48
2022-07-29T23:33:53.551Z,26.49
2022-07-29T23:36:21.951Z,26.40
2022-07-29T23:38:51.032Z,26.42
2022-07-29T23:41:21.459Z,26.65
2022-07-29T23:43:49.548Z,26.67
2022-07-29T23:46:17.723Z,26.62
2022-07-29T23:48:52.177Z,26.53
2022-07-29T23:51:20.935Z,26.67
2022-07-29T23:53:53.918Z,26.12
2022-07-29T23:56:24.602Z,26.17
2022-07-29T23:58:52.370Z,26.10
